sensor_id;sensor_type;location;lat;lon;timestamp;P1;durP1;ratioP1;P2;durP2;ratioP2
43990;SDS011;29654;50.784;20.604;2023-03-05T00:04:42;12.73;;;7.57;;
43990;SDS011;29654;50.784;20.604;2023-03-05T00:09:46;10.15;;;5.90;;
43990;SDS011;29654;50.784;20.604;2023-03-05T00:14:49;11.20;;;5.07;;
43990;SDS011;29654;50.784;20.604;2023-03-05T00:19:51;9.70;;;5.28;;
43990;SDS011;29654;50.784;20.604;2023-03-05T00:24:55;6.80;;;4.28;;
43990;SDS011;29654;50.784;20.604;2023-03-05T00:29:58;6.97;;;4.53;;
43990;SDS011;29654;50.784;20.604;2023-03-05T00:35:00;6.32;;;4.57;;
43990;SDS011;29654;50.784;20.604;2023-03-05T00:40:05;6.03;;;4.20;;
43990;SDS011;29654;50.784;20.604;2023-03-05T00:45:10;8.68;;;4.13;;
43990;SDS011;29654;50.784;20.604;2023-03-05T00:50:13;4.43;;;3.42;;
43990;SDS011;29654;50.784;20.604;2023-03-05T00:55:17;6.05;;;3.70;;
43990;SDS011;29654;50.784;20.604;2023-03-05T01:00:20;6.55;;;3.85;;
43990;SDS011;29654;50.784;20.604;2023-03-05T01:05:22;8.30;;;5.22;;
43990;SDS011;29654;50.784;20.604;2023-03-05T01:10:26;12.90;;;6.80;;
43990;SDS011;29654;50.784;20.604;2023-03-05T01:15:29;11.07;;;5.27;;
43990;SDS011;29654;50.784;20.604;2023-03-05T01:20:32;5.93;;;3.97;;
43990;SDS011;29654;50.784;20.604;2023-03-05T01:25:36;7.18;;;4.32;;
43990;SDS011;29654;50.784;20.604;2023-03-05T01:30:39;9.27;;;4.68;;
43990;SDS011;29654;50.784;20.604;2023-03-05T01:35:41;7.32;;;4.40;;
43990;SDS011;29654;50.784;20.604;2023-03-05T01:40:48;7.85;;;4.20;;
43990;SDS011;29654;50.784;20.604;2023-03-05T01:51:35;8.25;;;4.80;;
43990;SDS011;29654;50.784;20.604;2023-03-05T01:56:45;11.48;;;4.40;;
43990;SDS011;29654;50.784;20.604;2023-03-05T02:01:50;10.30;;;5.00;;
43990;SDS011;29654;50.784;20.604;2023-03-05T02:06:57;9.15;;;4.97;;
43990;SDS011;29654;50.784;20.604;2023-03-05T02:12:02;8.40;;;5.22;;
43990;SDS011;29654;50.784;20.604;2023-03-05T02:17:05;8.05;;;4.45;;
43990;SDS011;29654;50.784;20.604;2023-03-05T02:22:14;8.00;;;4.30;;
43990;SDS011;29654;50.784;20.604;2023-03-05T02:27:19;6.78;;;4.75;;
43990;SDS011;29654;50.784;20.604;2023-03-05T02:32:34;7.03;;;4.75;;
43990;SDS011;29654;50.784;20.604;2023-03-05T02:37:37;8.38;;;4.35;;
43990;SDS011;29654;50.784;20.604;2023-03-05T02:42:41;6.93;;;4.55;;
43990;SDS011;29654;50.784;20.604;2023-03-05T02:47:47;8.15;;;5.32;;
43990;SDS011;29654;50.784;20.604;2023-03-05T02:52:51;8.93;;;5.15;;
43990;SDS011;29654;50.784;20.604;2023-03-05T02:57:54;10.20;;;5.47;;
43990;SDS011;29654;50.784;20.604;2023-03-05T03:02:57;7.85;;;5.03;;
43990;SDS011;29654;50.784;20.604;2023-03-05T03:08:02;4.18;;;2.75;;
43990;SDS011;29654;50.784;20.604;2023-03-05T03:13:05;8.97;;;4.07;;
43990;SDS011;29654;50.784;20.604;2023-03-05T03:18:08;18.42;;;9.65;;
43990;SDS011;29654;50.784;20.604;2023-03-05T03:23:12;14.57;;;7.72;;
43990;SDS011;29654;50.784;20.604;2023-03-05T03:28:14;8.20;;;3.95;;
43990;SDS011;29654;50.784;20.604;2023-03-05T03:33:17;7.00;;;4.40;;
43990;SDS011;29654;50.784;20.604;2023-03-05T03:38:21;7.75;;;4.35;;
43990;SDS011;29654;50.784;20.604;2023-03-05T03:43:24;6.63;;;3.53;;
43990;SDS011;29654;50.784;20.604;2023-03-05T03:48:26;9.48;;;5.63;;
43990;SDS011;29654;50.784;20.604;2023-03-05T03:53:30;7.45;;;4.72;;
43990;SDS011;29654;50.784;20.604;2023-03-05T03:58:33;7.20;;;4.05;;
43990;SDS011;29654;50.784;20.604;2023-03-05T04:03:35;8.00;;;4.45;;
43990;SDS011;29654;50.784;20.604;2023-03-05T04:08:39;7.43;;;4.10;;
43990;SDS011;29654;50.784;20.604;2023-03-05T04:13:42;6.65;;;4.00;;
43990;SDS011;29654;50.784;20.604;2023-03-05T04:18:44;6.30;;;3.95;;
43990;SDS011;29654;50.784;20.604;2023-03-05T04:23:48;7.32;;;3.95;;
43990;SDS011;29654;50.784;20.604;2023-03-05T04:28:51;5.20;;;2.72;;
43990;SDS011;29654;50.784;20.604;2023-03-05T04:33:54;4.20;;;3.20;;
43990;SDS011;29654;50.784;20.604;2023-03-05T04:38:58;5.90;;;2.95;;
43990;SDS011;29654;50.784;20.604;2023-03-05T04:44:00;4.93;;;3.45;;
43990;SDS011;29654;50.784;20.604;2023-03-05T04:49:03;9.90;;;4.07;;
43990;SDS011;29654;50.784;20.604;2023-03-05T04:54:07;5.22;;;3.25;;
43990;SDS011;29654;50.784;20.604;2023-03-05T04:59:09;5.75;;;4.10;;
43990;SDS011;29654;50.784;20.604;2023-03-05T05:04:12;5.78;;;2.92;;
43990;SDS011;29654;50.784;20.604;2023-03-05T05:09:16;6.10;;;3.20;;
43990;SDS011;29654;50.784;20.604;2023-03-05T05:14:19;5.15;;;3.50;;
43990;SDS011;29654;50.784;20.604;2023-03-05T05:19:21;5.40;;;3.35;;
43990;SDS011;29654;50.784;20.604;2023-03-05T05:24:25;6.10;;;3.63;;
43990;SDS011;29654;50.784;20.604;2023-03-05T05:29:28;8.52;;;4.10;;
43990;SDS011;29654;50.784;20.604;2023-03-05T05:34:31;7.28;;;4.13;;
43990;SDS011;29654;50.784;20.604;2023-03-05T05:39:35;4.45;;;3.17;;
43990;SDS011;29654;50.784;20.604;2023-03-05T05:44:37;7.18;;;3.75;;
43990;SDS011;29654;50.784;20.604;2023-03-05T05:49:40;5.68;;;4.15;;
43990;SDS011;29654;50.784;20.604;2023-03-05T05:54:44;4.78;;;3.42;;
43990;SDS011;29654;50.784;20.604;2023-03-05T05:59:46;5.20;;;3.97;;
43990;SDS011;29654;50.784;20.604;2023-03-05T06:04:49;4.97;;;3.65;;
43990;SDS011;29654;50.784;20.604;2023-03-05T06:09:53;6.07;;;3.20;;
43990;SDS011;29654;50.784;20.604;2023-03-05T06:14:56;5.47;;;3.00;;
43990;SDS011;29654;50.784;20.604;2023-03-05T06:19:58;5.78;;;2.95;;
43990;SDS011;29654;50.784;20.604;2023-03-05T06:25:02;3.83;;;2.42;;
43990;SDS011;29654;50.784;20.604;2023-03-05T06:30:06;6.25;;;2.70;;
43990;SDS011;29654;50.784;20.604;2023-03-05T06:35:12;4.32;;;3.03;;
43990;SDS011;29654;50.784;20.604;2023-03-05T06:40:16;4.85;;;3.33;;
43990;SDS011;29654;50.784;20.604;2023-03-05T06:45:19;6.50;;;3.22;;
43990;SDS011;29654;50.784;20.604;2023-03-05T06:50:21;6.88;;;3.00;;
43990;SDS011;29654;50.784;20.604;2023-03-05T06:55:25;6.25;;;3.08;;
43990;SDS011;29654;50.784;20.604;2023-03-05T07:00:28;7.05;;;3.08;;
43990;SDS011;29654;50.784;20.604;2023-03-05T07:05:30;6.30;;;3.33;;
43990;SDS011;29654;50.784;20.604;2023-03-05T07:10:37;5.50;;;3.28;;
43990;SDS011;29654;50.784;20.604;2023-03-05T07:15:41;5.82;;;3.03;;
43990;SDS011;29654;50.784;20.604;2023-03-05T07:20:44;3.58;;;2.53;;
43990;SDS011;29654;50.784;20.604;2023-03-05T07:25:48;4.90;;;2.83;;
43990;SDS011;29654;50.784;20.604;2023-03-05T07:30:55;5.20;;;3.03;;
43990;SDS011;29654;50.784;20.604;2023-03-05T07:35:58;3.65;;;2.60;;
43990;SDS011;29654;50.784;20.604;2023-03-05T07:41:05;3.90;;;2.03;;
43990;SDS011;29654;50.784;20.604;2023-03-05T07:46:11;3.45;;;2.20;;
43990;SDS011;29654;50.784;20.604;2023-03-05T07:51:17;3.80;;;2.70;;
43990;SDS011;29654;50.784;20.604;2023-03-05T07:56:23;3.60;;;1.98;;
43990;SDS011;29654;50.784;20.604;2023-03-05T08:01:29;4.43;;;2.17;;
43990;SDS011;29654;50.784;20.604;2023-03-05T08:06:33;3.90;;;2.33;;
43990;SDS011;29654;50.784;20.604;2023-03-05T08:11:37;4.13;;;2.15;;
43990;SDS011;29654;50.784;20.604;2023-03-05T08:16:40;3.22;;;2.10;;
43990;SDS011;29654;50.784;20.604;2023-03-05T08:21:43;4.63;;;2.22;;
43990;SDS011;29654;50.784;20.604;2023-03-05T08:26:48;3.47;;;1.85;;
43990;SDS011;29654;50.784;20.604;2023-03-05T08:31:51;5.22;;;2.55;;
43990;SDS011;29654;50.784;20.604;2023-03-05T08:36:54;4.13;;;2.03;;
43990;SDS011;29654;50.784;20.604;2023-03-05T08:41:58;3.42;;;2.25;;
43990;SDS011;29654;50.784;20.604;2023-03-05T08:47:00;3.25;;;2.28;;
43990;SDS011;29654;50.784;20.604;2023-03-05T08:52:03;5.03;;;2.45;;
43990;SDS011;29654;50.784;20.604;2023-03-05T08:57:08;4.95;;;2.95;;
43990;SDS011;29654;50.784;20.604;2023-03-05T09:02:11;4.97;;;2.47;;
43990;SDS011;29654;50.784;20.604;2023-03-05T09:07:14;4.63;;;2.28;;
43990;SDS011;29654;50.784;20.604;2023-03-05T09:12:18;4.10;;;2.38;;
43990;SDS011;29654;50.784;20.604;2023-03-05T09:17:20;4.38;;;3.10;;
43990;SDS011;29654;50.784;20.604;2023-03-05T09:22:23;4.93;;;2.63;;
43990;SDS011;29654;50.784;20.604;2023-03-05T09:27:27;4.00;;;2.70;;
43990;SDS011;29654;50.784;20.604;2023-03-05T09:32:33;4.72;;;2.70;;
43990;SDS011;29654;50.784;20.604;2023-03-05T09:37:36;5.20;;;2.40;;
43990;SDS011;29654;50.784;20.604;2023-03-05T09:48:12;3.88;;;2.13;;
43990;SDS011;29654;50.784;20.604;2023-03-05T09:53:22;4.55;;;2.80;;
43990;SDS011;29654;50.784;20.604;2023-03-05T09:58:37;5.47;;;3.45;;
43990;SDS011;29654;50.784;20.604;2023-03-05T10:03:43;3.83;;;2.50;;
43990;SDS011;29654;50.784;20.604;2023-03-05T10:08:56;4.20;;;2.53;;
43990;SDS011;29654;50.784;20.604;2023-03-05T10:14:09;5.95;;;2.72;;
43990;SDS011;29654;50.784;20.604;2023-03-05T10:19:16;5.80;;;3.20;;
43990;SDS011;29654;50.784;20.604;2023-03-05T10:24:40;5.20;;;2.63;;
43990;SDS011;29654;50.784;20.604;2023-03-05T10:30:07;3.65;;;2.67;;
43990;SDS011;29654;50.784;20.604;2023-03-05T10:41:20;3.92;;;2.80;;
43990;SDS011;29654;50.784;20.604;2023-03-05T10:46:33;4.93;;;3.13;;
43990;SDS011;29654;50.784;20.604;2023-03-05T10:51:39;5.45;;;3.20;;
43990;SDS011;29654;50.784;20.604;2023-03-05T10:57:01;4.05;;;2.63;;
43990;SDS011;29654;50.784;20.604;2023-03-05T11:02:07;6.40;;;2.80;;
43990;SDS011;29654;50.784;20.604;2023-03-05T11:12:37;4.70;;;3.03;;
43990;SDS011;29654;50.784;20.604;2023-03-05T11:17:41;4.50;;;2.90;;
43990;SDS011;29654;50.784;20.604;2023-03-05T11:23:00;5.82;;;3.22;;
43990;SDS011;29654;50.784;20.604;2023-03-05T11:28:16;6.88;;;3.60;;
43990;SDS011;29654;50.784;20.604;2023-03-05T11:33:22;5.68;;;3.65;;
43990;SDS011;29654;50.784;20.604;2023-03-05T11:38:26;5.88;;;4.00;;
43990;SDS011;29654;50.784;20.604;2023-03-05T11:43:29;6.47;;;3.80;;
43990;SDS011;29654;50.784;20.604;2023-03-05T11:48:39;7.50;;;3.90;;
43990;SDS011;29654;50.784;20.604;2023-03-05T11:53:45;8.10;;;4.70;;
43990;SDS011;29654;50.784;20.604;2023-03-05T11:58:53;5.80;;;4.43;;
43990;SDS011;29654;50.784;20.604;2023-03-05T12:04:03;7.63;;;5.07;;
43990;SDS011;29654;50.784;20.604;2023-03-05T12:09:08;9.05;;;5.00;;
43990;SDS011;29654;50.784;20.604;2023-03-05T12:14:18;9.18;;;6.07;;
43990;SDS011;29654;50.784;20.604;2023-03-05T12:19:44;11.30;;;6.25;;
43990;SDS011;29654;50.784;20.604;2023-03-05T12:24:52;9.00;;;5.97;;
43990;SDS011;29654;50.784;20.604;2023-03-05T12:30:32;11.02;;;7.57;;
43990;SDS011;29654;50.784;20.604;2023-03-05T12:41:36;10.25;;;7.85;;
43990;SDS011;29654;50.784;20.604;2023-03-05T12:46:39;9.38;;;7.93;;
43990;SDS011;29654;50.784;20.604;2023-03-05T12:51:45;10.95;;;8.02;;
43990;SDS011;29654;50.784;20.604;2023-03-05T12:56:50;12.32;;;8.73;;
43990;SDS011;29654;50.784;20.604;2023-03-05T13:01:54;13.75;;;8.27;;
43990;SDS011;29654;50.784;20.604;2023-03-05T13:07:02;8.68;;;7.43;;
43990;SDS011;29654;50.784;20.604;2023-03-05T13:12:12;10.60;;;7.80;;
43990;SDS011;29654;50.784;20.604;2023-03-05T13:17:23;10.20;;;7.00;;
43990;SDS011;29654;50.784;20.604;2023-03-05T13:22:34;9.98;;;7.07;;
43990;SDS011;29654;50.784;20.604;2023-03-05T13:27:38;8.02;;;6.07;;
43990;SDS011;29654;50.784;20.604;2023-03-05T13:32:40;8.98;;;5.88;;
43990;SDS011;29654;50.784;20.604;2023-03-05T13:37:45;10.27;;;6.18;;
43990;SDS011;29654;50.784;20.604;2023-03-05T13:42:48;6.45;;;4.80;;
43990;SDS011;29654;50.784;20.604;2023-03-05T13:47:53;8.68;;;4.95;;
43990;SDS011;29654;50.784;20.604;2023-03-05T13:58:43;9.07;;;4.30;;
43990;SDS011;29654;50.784;20.604;2023-03-05T14:03:53;7.80;;;3.58;;
43990;SDS011;29654;50.784;20.604;2023-03-05T14:09:00;4.47;;;3.60;;
43990;SDS011;29654;50.784;20.604;2023-03-05T14:14:13;6.05;;;3.20;;
43990;SDS011;29654;50.784;20.604;2023-03-05T14:19:34;4.40;;;2.35;;
43990;SDS011;29654;50.784;20.604;2023-03-05T14:24:38;4.45;;;2.63;;
43990;SDS011;29654;50.784;20.604;2023-03-05T14:29:53;5.85;;;2.92;;
43990;SDS011;29654;50.784;20.604;2023-03-05T14:34:56;3.97;;;2.97;;
43990;SDS011;29654;50.784;20.604;2023-03-05T14:40:00;4.70;;;2.75;;
43990;SDS011;29654;50.784;20.604;2023-03-05T14:45:12;4.88;;;2.65;;
43990;SDS011;29654;50.784;20.604;2023-03-05T14:50:18;5.68;;;2.92;;
43990;SDS011;29654;50.784;20.604;2023-03-05T14:55:24;3.92;;;2.55;;
43990;SDS011;29654;50.784;20.604;2023-03-05T15:00:31;6.25;;;3.40;;
43990;SDS011;29654;50.784;20.604;2023-03-05T15:05:34;6.60;;;3.22;;
43990;SDS011;29654;50.784;20.604;2023-03-05T15:10:38;5.75;;;3.75;;
43990;SDS011;29654;50.784;20.604;2023-03-05T15:15:43;5.63;;;3.47;;
43990;SDS011;29654;50.784;20.604;2023-03-05T15:20:47;5.50;;;3.88;;
43990;SDS011;29654;50.784;20.604;2023-03-05T15:25:52;5.45;;;2.97;;
43990;SDS011;29654;50.784;20.604;2023-03-05T15:30:56;5.00;;;3.05;;
43990;SDS011;29654;50.784;20.604;2023-03-05T15:35:58;5.75;;;3.13;;
43990;SDS011;29654;50.784;20.604;2023-03-05T15:41:01;6.15;;;2.70;;
43990;SDS011;29654;50.784;20.604;2023-03-05T15:46:05;5.90;;;2.90;;
43990;SDS011;29654;50.784;20.604;2023-03-05T15:51:08;6.38;;;2.90;;
43990;SDS011;29654;50.784;20.604;2023-03-05T15:56:14;4.93;;;2.63;;
43990;SDS011;29654;50.784;20.604;2023-03-05T16:01:18;4.53;;;3.00;;
43990;SDS011;29654;50.784;20.604;2023-03-05T16:06:22;6.30;;;3.70;;
43990;SDS011;29654;50.784;20.604;2023-03-05T16:11:25;5.82;;;4.05;;
43990;SDS011;29654;50.784;20.604;2023-03-05T16:16:30;4.93;;;3.35;;
43990;SDS011;29654;50.784;20.604;2023-03-05T16:21:35;7.30;;;4.57;;
43990;SDS011;29654;50.784;20.604;2023-03-05T16:26:37;6.35;;;4.13;;
43990;SDS011;29654;50.784;20.604;2023-03-05T16:31:42;11.23;;;5.63;;
43990;SDS011;29654;50.784;20.604;2023-03-05T16:36:46;5.70;;;3.97;;
43990;SDS011;29654;50.784;20.604;2023-03-05T16:41:52;5.90;;;3.60;;
43990;SDS011;29654;50.784;20.604;2023-03-05T16:46:56;4.97;;;3.20;;
43990;SDS011;29654;50.784;20.604;2023-03-05T16:51:59;6.90;;;3.63;;
43990;SDS011;29654;50.784;20.604;2023-03-05T16:57:04;6.63;;;3.85;;
43990;SDS011;29654;50.784;20.604;2023-03-05T17:02:08;8.02;;;4.28;;
43990;SDS011;29654;50.784;20.604;2023-03-05T17:07:12;8.00;;;3.95;;
43990;SDS011;29654;50.784;20.604;2023-03-05T17:12:14;7.88;;;4.03;;
43990;SDS011;29654;50.784;20.604;2023-03-05T17:17:18;5.13;;;3.58;;
43990;SDS011;29654;50.784;20.604;2023-03-05T17:22:21;4.43;;;3.40;;
43990;SDS011;29654;50.784;20.604;2023-03-05T17:27:23;6.07;;;3.35;;
43990;SDS011;29654;50.784;20.604;2023-03-05T17:32:27;8.30;;;3.88;;
43990;SDS011;29654;50.784;20.604;2023-03-05T17:37:30;5.18;;;3.90;;
43990;SDS011;29654;50.784;20.604;2023-03-05T17:42:32;6.60;;;3.80;;
43990;SDS011;29654;50.784;20.604;2023-03-05T17:47:36;6.53;;;3.90;;
43990;SDS011;29654;50.784;20.604;2023-03-05T17:52:39;5.68;;;3.40;;
43990;SDS011;29654;50.784;20.604;2023-03-05T17:57:42;8.63;;;4.93;;
43990;SDS011;29654;50.784;20.604;2023-03-05T18:02:48;6.07;;;4.22;;
43990;SDS011;29654;50.784;20.604;2023-03-05T18:07:52;7.88;;;4.28;;
43990;SDS011;29654;50.784;20.604;2023-03-05T18:12:55;7.00;;;4.93;;
43990;SDS011;29654;50.784;20.604;2023-03-05T18:17:59;5.35;;;4.60;;
43990;SDS011;29654;50.784;20.604;2023-03-05T18:23:02;10.27;;;5.75;;
43990;SDS011;29654;50.784;20.604;2023-03-05T18:28:07;8.93;;;6.18;;
43990;SDS011;29654;50.784;20.604;2023-03-05T18:33:14;8.20;;;5.75;;
43990;SDS011;29654;50.784;20.604;2023-03-05T18:38:20;9.82;;;7.00;;
43990;SDS011;29654;50.784;20.604;2023-03-05T18:43:24;9.07;;;6.85;;
43990;SDS011;29654;50.784;20.604;2023-03-05T18:48:28;12.27;;;6.57;;
43990;SDS011;29654;50.784;20.604;2023-03-05T18:53:31;8.88;;;5.40;;
43990;SDS011;29654;50.784;20.604;2023-03-05T18:58:34;9.75;;;6.80;;
43990;SDS011;29654;50.784;20.604;2023-03-05T19:03:38;10.38;;;7.50;;
43990;SDS011;29654;50.784;20.604;2023-03-05T19:08:41;12.20;;;6.88;;
43990;SDS011;29654;50.784;20.604;2023-03-05T19:13:44;12.00;;;7.90;;
43990;SDS011;29654;50.784;20.604;2023-03-05T19:18:49;10.75;;;7.50;;
43990;SDS011;29654;50.784;20.604;2023-03-05T19:24:03;10.90;;;7.30;;
43990;SDS011;29654;50.784;20.604;2023-03-05T19:29:06;8.27;;;6.88;;
43990;SDS011;29654;50.784;20.604;2023-03-05T19:34:10;7.53;;;6.15;;
43990;SDS011;29654;50.784;20.604;2023-03-05T19:39:13;9.57;;;6.68;;
43990;SDS011;29654;50.784;20.604;2023-03-05T19:44:16;8.32;;;6.53;;
43990;SDS011;29654;50.784;20.604;2023-03-05T19:49:20;11.65;;;7.30;;
43990;SDS011;29654;50.784;20.604;2023-03-05T19:54:23;9.73;;;7.20;;
43990;SDS011;29654;50.784;20.604;2023-03-05T19:59:26;10.00;;;6.47;;
43990;SDS011;29654;50.784;20.604;2023-03-05T20:04:30;9.02;;;6.55;;
43990;SDS011;29654;50.784;20.604;2023-03-05T20:09:32;8.27;;;7.38;;
43990;SDS011;29654;50.784;20.604;2023-03-05T20:14:35;9.52;;;7.43;;
43990;SDS011;29654;50.784;20.604;2023-03-05T20:19:39;10.68;;;7.55;;
43990;SDS011;29654;50.784;20.604;2023-03-05T20:24:42;11.48;;;7.70;;
43990;SDS011;29654;50.784;20.604;2023-03-05T20:29:45;11.52;;;7.07;;
43990;SDS011;29654;50.784;20.604;2023-03-05T20:34:50;9.48;;;7.03;;
43990;SDS011;29654;50.784;20.604;2023-03-05T20:39:53;10.57;;;6.95;;
43990;SDS011;29654;50.784;20.604;2023-03-05T20:44:55;9.35;;;6.28;;
43990;SDS011;29654;50.784;20.604;2023-03-05T20:49:59;9.05;;;5.65;;
43990;SDS011;29654;50.784;20.604;2023-03-05T20:55:02;9.60;;;6.07;;
43990;SDS011;29654;50.784;20.604;2023-03-05T21:00:06;10.15;;;6.03;;
43990;SDS011;29654;50.784;20.604;2023-03-05T21:05:14;8.48;;;5.60;;
43990;SDS011;29654;50.784;20.604;2023-03-05T21:10:17;10.15;;;4.95;;
43990;SDS011;29654;50.784;20.604;2023-03-05T21:15:21;6.57;;;4.78;;
43990;SDS011;29654;50.784;20.604;2023-03-05T21:20:30;6.35;;;4.30;;
43990;SDS011;29654;50.784;20.604;2023-03-05T21:25:33;6.25;;;4.13;;
43990;SDS011;29654;50.784;20.604;2023-03-05T21:30:37;5.28;;;4.15;;
43990;SDS011;29654;50.784;20.604;2023-03-05T21:35:44;5.78;;;4.18;;
43990;SDS011;29654;50.784;20.604;2023-03-05T21:40:47;7.15;;;4.68;;
43990;SDS011;29654;50.784;20.604;2023-03-05T21:45:51;6.93;;;4.95;;
43990;SDS011;29654;50.784;20.604;2023-03-05T21:50:57;8.63;;;5.03;;
43990;SDS011;29654;50.784;20.604;2023-03-05T21:56:00;6.50;;;4.43;;
43990;SDS011;29654;50.784;20.604;2023-03-05T22:01:21;6.53;;;4.55;;
43990;SDS011;29654;50.784;20.604;2023-03-05T22:06:25;5.72;;;4.32;;
43990;SDS011;29654;50.784;20.604;2023-03-05T22:11:27;9.32;;;5.18;;
43990;SDS011;29654;50.784;20.604;2023-03-05T22:16:30;7.10;;;4.55;;
43990;SDS011;29654;50.784;20.604;2023-03-05T22:21:34;7.15;;;4.82;;
43990;SDS011;29654;50.784;20.604;2023-03-05T22:26:37;6.85;;;5.30;;
43990;SDS011;29654;50.784;20.604;2023-03-05T22:31:41;8.07;;;5.43;;
43990;SDS011;29654;50.784;20.604;2023-03-05T22:36:45;7.68;;;5.70;;
43990;SDS011;29654;50.784;20.604;2023-03-05T22:41:47;10.50;;;6.72;;
43990;SDS011;29654;50.784;20.604;2023-03-05T22:46:50;8.02;;;5.82;;
43990;SDS011;29654;50.784;20.604;2023-03-05T22:51:54;8.40;;;5.82;;
43990;SDS011;29654;50.784;20.604;2023-03-05T22:56:57;7.32;;;5.90;;
43990;SDS011;29654;50.784;20.604;2023-03-05T23:02:00;9.57;;;5.57;;
43990;SDS011;29654;50.784;20.604;2023-03-05T23:07:04;6.85;;;4.93;;
43990;SDS011;29654;50.784;20.604;2023-03-05T23:12:07;9.10;;;4.97;;
43990;SDS011;29654;50.784;20.604;2023-03-05T23:17:10;6.60;;;4.88;;
43990;SDS011;29654;50.784;20.604;2023-03-05T23:22:14;7.30;;;5.65;;
43990;SDS011;29654;50.784;20.604;2023-03-05T23:27:17;7.60;;;5.65;;
43990;SDS011;29654;50.784;20.604;2023-03-05T23:32:20;7.10;;;5.68;;
43990;SDS011;29654;50.784;20.604;2023-03-05T23:37:24;7.28;;;4.97;;
43990;SDS011;29654;50.784;20.604;2023-03-05T23:42:26;9.00;;;5.65;;
43990;SDS011;29654;50.784;20.604;2023-03-05T23:47:29;6.78;;;5.00;;
43990;SDS011;29654;50.784;20.604;2023-03-05T23:52:33;9.68;;;6.07;;
43990;SDS011;29654;50.784;20.604;2023-03-05T23:57:36;8.70;;;5.30;;
